• Join FlightAware (Why Join?)
  • Login
  • US Flag 
02:57PM EDT


 

Airport Tracker/Info


-or-


 

Live Flight TrackerFlight Track Log ✈ N226JP ✈ 16-Jul-2013 ✈ KDDH - KMMU

Flight Track Log - Related Links

Times and Time Zones

All times are in EDT time to prevent confusion due to time zone crossing. See the N226JP flight status page for this flight to view local times or setup timezone preferences in your user account.

Time Position Orientation Groundspeed Altitude Reporting Facility
EDT Latitude Longitude Course Direction KTS MPH feet Rate Location/Type
04:06PM 42.8797 -73.4261 206° Southwest 149 171 3,600  Level Boston Center
04:08PM 42.8294 -73.4592 206° Southwest 161 185 4,300 540 Climbing Boston Center
04:09PM 42.7875 -73.4783 199° South 158 182 4,900 540 Climbing Boston Center
04:10PM 42.7436 -73.5031 202° Southwest 165 190 5,500 540 Climbing Boston Center
04:11PM 42.6994 -73.5219 197° South 165 190 6,000 360 Climbing Boston Center
04:12PM 42.6492 -73.5467 200° South 169 194 6,400 180 Climbing Boston Center
04:13PM 42.6031 -73.5711 201° Southwest 186 214 6,500  Climbing Boston Center
04:14PM 42.5572 -73.5928 199° South 184 212 6,400 -60 Descending Boston Center
04:15PM 42.5047 -73.6144 197° South 182 209 6,400  Level Boston Center
04:16PM 42.4525 -73.6417 201° Southwest 180 207 6,400  Level Boston Center
04:17PM 42.4064 -73.6633 199° South 181 208 6,400  Level Boston Center
04:18PM 42.3603 -73.6875 201° Southwest 181 208 6,400  Level Boston Center
04:19PM 42.3078 -73.7089 197° South 190 219 6,400  Level Boston Center
04:20PM 42.2617 -73.7306 199° South 195 224 6,400  Level Boston Center
04:21PM 42.2156 -73.7519 199° South 190 219 6,400  Level Boston Center
04:22PM 42.1550 -73.7814 200° South 190 219 6,500  Climbing Boston Center
04:23PM 42.1131 -73.8031 201° Southwest 190 219 6,500 -60 Level Boston Center
04:24PM 42.0689 -73.8217 197° South 190 219 6,400 -60 Descending Boston Center
04:25PM 42.0103 -73.8511 200° South 195 224 6,400  Level Boston Center
04:26PM 41.9661 -73.8725 200° South 190 219 6,400  Level Boston Center
04:27PM 41.9139 -73.8964 199° South 190 219 6,400  Level Boston Center
04:28PM 41.8697 -73.9178 200° South 190 219 6,500  Climbing Boston Center
04:29PM 41.8172 -73.9442 201° Southwest 190 219 6,400  Descending Boston Center
04:30PM 41.7733 -73.9656 200° South 190 219 6,500  Climbing Boston Center
04:31PM 41.7208 -73.9894 199° South 190 219 6,400 -60 Descending Boston Center
04:32PM 41.6789 -74.0078 198° South 185 213 6,400  Level Boston Center
04:33PM 41.6264 -74.0314 199° South 185 213 6,500  Climbing Boston Center
04:34PM 41.5803 -74.0553 201° Southwest 192 221 6,500  Level Boston Center
04:35PM 41.5278 -74.0789 199° South 187 215 6,600  Climbing Boston Center
04:36PM 41.4858 -74.0972 198° South 187 215 6,600  Level Boston Center
04:37PM 41.4311 -74.1233 200° South 192 221 6,600 -60 Level Boston Center
04:38PM 41.3667 -74.1500 197° South 186 214 6,500 -120 Descending New York TRACON
04:40PM 41.3167 -74.1833 207° Southwest 187 215 6,400 -180 Descending New York TRACON
04:41PM 41.2667 -74.2000 194° South 191 220 6,200 -300 Descending New York TRACON
04:41PM 41.2167 -74.2167 194° South 201 231 5,900 -420 Descending New York TRACON
04:42PM 41.1667 -74.2500 207° Southwest 197 227 5,400 -420 Descending New York TRACON
04:43PM 41.1167 -74.2667 194° South 186 214 5,100 -420 Descending New York TRACON
04:44PM 41.0667 -74.3000 207° Southwest 184 212 4,600 -480 Descending New York TRACON
04:45PM 41.0167 -74.3167 194° South 181 208 4,200 -480 Descending New York TRACON
04:47PM 40.9667 -74.3333 194° South 177 204 3,700 -480 Descending New York TRACON
04:48PM 40.9333 -74.3667 217° Southwest 171 197 3,300 -480 Descending New York TRACON
04:49PM 40.8833 -74.4000 207° Southwest 169 194 2,800 -600 Descending New York TRACON
04:50PM 40.8500 -74.4167 201° Southwest 156 180 2,100 -600 Descending New York TRACON
04:51PM 40.8167 -74.4000 159° South 119 137 1,600 -600 Descending New York TRACON
04:52PM 40.8000 -74.3833 143° Southeast 112 129 1,000 -600 Descending New York TRACON
04:54PM 40.7833 -74.4000 197° South  Level FlightAware Approximate
05:01PM 40.7993 -74.4149 197° South  Level Estimated
05:02PM 40.7993 -74.4149 197° South  Level Estimated
05:03PM 40.7993 -74.4149 197° South  Level Estimated
05:04PM 40.7993 -74.4149 197° South  Level Estimated
05:05PM 40.7993 -74.4149 197° South  Level Estimated